sensor_id;sensor_type;location;lat;lon;timestamp;P1;durP1;ratioP1;P2;durP2;ratioP2
8476;SDS011;4275;42.854;23.222;2024-03-29T00:00:39;28.98;;;26.88;;
8476;SDS011;4275;42.854;23.222;2024-03-29T00:03:05;27.73;;;25.75;;
8476;SDS011;4275;42.854;23.222;2024-03-29T00:05:31;24.08;;;22.27;;
8476;SDS011;4275;42.854;23.222;2024-03-29T00:07:57;24.13;;;22.33;;
8476;SDS011;4275;42.854;23.222;2024-03-29T00:10:23;27.90;;;26.00;;
8476;SDS011;4275;42.854;23.222;2024-03-29T00:12:50;28.17;;;26.27;;
8476;SDS011;4275;42.854;23.222;2024-03-29T00:15:16;26.00;;;24.20;;
8476;SDS011;4275;42.854;23.222;2024-03-29T00:17:42;28.95;;;27.05;;
8476;SDS011;4275;42.854;23.222;2024-03-29T00:20:09;28.65;;;26.75;;
8476;SDS011;4275;42.854;23.222;2024-03-29T00:22:35;23.17;;;21.58;;
8476;SDS011;4275;42.854;23.222;2024-03-29T00:25:01;24.42;;;22.83;;
8476;SDS011;4275;42.854;23.222;2024-03-29T00:27:27;25.65;;;23.95;;
8476;SDS011;4275;42.854;23.222;2024-03-29T00:29:55;31.05;;;28.95;;
8476;SDS011;4275;42.854;23.222;2024-03-29T00:32:21;22.92;;;21.33;;
8476;SDS011;4275;42.854;23.222;2024-03-29T00:34:49;28.52;;;26.52;;
8476;SDS011;4275;42.854;23.222;2024-03-29T00:37:16;27.73;;;25.92;;
8476;SDS011;4275;42.854;23.222;2024-03-29T00:39:42;23.55;;;21.95;;
8476;SDS011;4275;42.854;23.222;2024-03-29T00:42:07;24.73;;;23.02;;
8476;SDS011;4275;42.854;23.222;2024-03-29T00:44:34;26.08;;;24.38;;
8476;SDS011;4275;42.854;23.222;2024-03-29T00:47:02;28.52;;;26.63;;
8476;SDS011;4275;42.854;23.222;2024-03-29T00:49:28;22.45;;;20.95;;
8476;SDS011;4275;42.854;23.222;2024-03-29T00:51:54;27.85;;;26.05;;
8476;SDS011;4275;42.854;23.222;2024-03-29T00:54:19;25.90;;;24.30;;
8476;SDS011;4275;42.854;23.222;2024-03-29T00:56:45;22.77;;;21.25;;
8476;SDS011;4275;42.854;23.222;2024-03-29T00:59:11;23.55;;;21.95;;
8476;SDS011;4275;42.854;23.222;2024-03-29T01:01:37;27.00;;;25.30;;
8476;SDS011;4275;42.854;23.222;2024-03-29T01:04:05;27.67;;;25.98;;
8476;SDS011;4275;42.854;23.222;2024-03-29T01:06:31;22.00;;;20.50;;
8476;SDS011;4275;42.854;23.222;2024-03-29T01:08:56;23.17;;;21.58;;
8476;SDS011;4275;42.854;23.222;2024-03-29T01:11:22;25.20;;;23.60;;
8476;SDS011;4275;42.854;23.222;2024-03-29T01:20:33;25.40;;;23.90;;
8476;SDS011;4275;42.854;23.222;2024-03-29T01:22:59;25.83;;;24.23;;
8476;SDS011;4275;42.854;23.222;2024-03-29T01:25:25;21.70;;;20.40;;
8476;SDS011;4275;42.854;23.222;2024-03-29T01:30:43;27.25;;;25.55;;
8476;SDS011;4275;42.854;23.222;2024-03-29T01:33:16;22.80;;;21.30;;
8476;SDS011;4275;42.854;23.222;2024-03-29T01:35:43;26.17;;;24.40;;
8476;SDS011;4275;42.854;23.222;2024-03-29T01:38:09;26.40;;;24.70;;
8476;SDS011;4275;42.854;23.222;2024-03-29T01:40:35;23.40;;;21.70;;
8476;SDS011;4275;42.854;23.222;2024-03-29T01:43:01;24.50;;;22.80;;
8476;SDS011;4275;42.854;23.222;2024-03-29T01:45:27;27.02;;;25.23;;
8476;SDS011;4275;42.854;23.222;2024-03-29T01:47:56;26.88;;;25.08;;
8476;SDS011;4275;42.854;23.222;2024-03-29T01:50:23;23.90;;;22.20;;
8476;SDS011;4275;42.854;23.222;2024-03-29T01:52:51;29.38;;;27.38;;
8476;SDS011;4275;42.854;23.222;2024-03-29T01:55:18;27.88;;;25.98;;
8476;SDS011;4275;42.854;23.222;2024-03-29T01:57:45;24.85;;;23.05;;
8476;SDS011;4275;42.854;23.222;2024-03-29T02:00:13;23.27;;;21.58;;
8476;SDS011;4275;42.854;23.222;2024-03-29T02:02:40;28.58;;;26.67;;
8476;SDS011;4275;42.854;23.222;2024-03-29T02:05:08;27.25;;;25.42;;
8476;SDS011;4275;42.854;23.222;2024-03-29T02:07:35;25.08;;;23.27;;
8476;SDS011;4275;42.854;23.222;2024-03-29T02:10:08;25.50;;;23.70;;
8476;SDS011;4275;42.854;23.222;2024-03-29T02:12:38;26.23;;;24.42;;
8476;SDS011;4275;42.854;23.222;2024-03-29T02:15:05;23.75;;;22.05;;
8476;SDS011;4275;42.854;23.222;2024-03-29T02:17:32;24.17;;;22.40;;
8476;SDS011;4275;42.854;23.222;2024-03-29T02:19:59;30.60;;;28.60;;
8476;SDS011;4275;42.854;23.222;2024-03-29T02:22:27;29.67;;;27.67;;
8476;SDS011;4275;42.854;23.222;2024-03-29T02:24:58;23.60;;;21.90;;
8476;SDS011;4275;42.854;23.222;2024-03-29T02:27:25;26.08;;;24.27;;
8476;SDS011;4275;42.854;23.222;2024-03-29T02:29:51;27.75;;;25.85;;
8476;SDS011;4275;42.854;23.222;2024-03-29T02:32:18;29.23;;;27.23;;
8476;SDS011;4275;42.854;23.222;2024-03-29T02:34:45;25.60;;;23.70;;
8476;SDS011;4275;42.854;23.222;2024-03-29T02:37:12;27.90;;;26.00;;
8476;SDS011;4275;42.854;23.222;2024-03-29T02:39:39;28.10;;;26.10;;
8476;SDS011;4275;42.854;23.222;2024-03-29T02:42:07;30.10;;;28.10;;
8476;SDS011;4275;42.854;23.222;2024-03-29T02:44:35;23.65;;;21.95;;
8476;SDS011;4275;42.854;23.222;2024-03-29T02:47:03;29.90;;;27.90;;
8476;SDS011;4275;42.854;23.222;2024-03-29T02:49:30;27.30;;;25.50;;
8476;SDS011;4275;42.854;23.222;2024-03-29T02:51:56;24.30;;;22.50;;
8476;SDS011;4275;42.854;23.222;2024-03-29T02:54:23;28.35;;;26.45;;
8476;SDS011;4275;42.854;23.222;2024-03-29T02:56:49;27.70;;;25.80;;
8476;SDS011;4275;42.854;23.222;2024-03-29T02:59:17;28.35;;;26.45;;
8476;SDS011;4275;42.854;23.222;2024-03-29T03:01:43;24.02;;;22.33;;
8476;SDS011;4275;42.854;23.222;2024-03-29T03:04:10;24.05;;;22.35;;
8476;SDS011;4275;42.854;23.222;2024-03-29T03:06:36;28.02;;;26.13;;
8476;SDS011;4275;42.854;23.222;2024-03-29T03:09:03;28.98;;;26.98;;
8476;SDS011;4275;42.854;23.222;2024-03-29T03:11:48;29.38;;;27.27;;
8476;SDS011;4275;42.854;23.222;2024-03-29T03:14:14;29.88;;;27.77;;
8476;SDS011;4275;42.854;23.222;2024-03-29T03:16:43;26.75;;;24.85;;
8476;SDS011;4275;42.854;23.222;2024-03-29T03:19:10;29.63;;;27.58;;
8476;SDS011;4275;42.854;23.222;2024-03-29T03:21:36;26.67;;;24.77;;
8476;SDS011;4275;42.854;23.222;2024-03-29T03:24:03;31.08;;;28.98;;
8476;SDS011;4275;42.854;23.222;2024-03-29T03:26:30;27.98;;;26.08;;
8476;SDS011;4275;42.854;23.222;2024-03-29T03:28:57;31.40;;;29.25;;
8476;SDS011;4275;42.854;23.222;2024-03-29T03:31:22;28.13;;;26.13;;
8476;SDS011;4275;42.854;23.222;2024-03-29T03:33:51;29.35;;;27.25;;
8476;SDS011;4275;42.854;23.222;2024-03-29T03:36:18;27.65;;;25.67;;
8476;SDS011;4275;42.854;23.222;2024-03-29T03:38:44;28.33;;;26.33;;
8476;SDS011;4275;42.854;23.222;2024-03-29T03:41:11;23.20;;;21.50;;
8476;SDS011;4275;42.854;23.222;2024-03-29T03:43:37;23.73;;;22.00;;
8476;SDS011;4275;42.854;23.222;2024-03-29T03:46:04;25.90;;;24.10;;
8476;SDS011;4275;42.854;23.222;2024-03-29T03:48:30;22.90;;;21.30;;
8476;SDS011;4275;42.854;23.222;2024-03-29T03:50:58;22.73;;;21.13;;
8476;SDS011;4275;42.854;23.222;2024-03-29T03:53:24;23.83;;;22.33;;
8476;SDS011;4275;42.854;23.222;2024-03-29T03:55:51;24.95;;;23.35;;
8476;SDS011;4275;42.854;23.222;2024-03-29T03:58:17;21.10;;;19.70;;
8476;SDS011;4275;42.854;23.222;2024-03-29T04:00:44;21.77;;;20.38;;
8476;SDS011;4275;42.854;23.222;2024-03-29T04:03:10;23.70;;;22.30;;
8476;SDS011;4275;42.854;23.222;2024-03-29T04:05:37;19.63;;;18.42;;
8476;SDS011;4275;42.854;23.222;2024-03-29T04:08:04;19.27;;;18.08;;
8476;SDS011;4275;42.854;23.222;2024-03-29T04:10:32;21.88;;;20.58;;
8476;SDS011;4275;42.854;23.222;2024-03-29T04:13:02;20.27;;;19.17;;
8476;SDS011;4275;42.854;23.222;2024-03-29T04:15:29;17.90;;;16.80;;
8476;SDS011;4275;42.854;23.222;2024-03-29T04:17:57;18.40;;;17.30;;
8476;SDS011;4275;42.854;23.222;2024-03-29T04:20:25;21.40;;;20.20;;
8476;SDS011;4275;42.854;23.222;2024-03-29T04:22:51;21.67;;;20.38;;
8476;SDS011;4275;42.854;23.222;2024-03-29T04:25:19;18.42;;;17.25;;
8476;SDS011;4275;42.854;23.222;2024-03-29T04:27:45;20.05;;;18.85;;
8476;SDS011;4275;42.854;23.222;2024-03-29T04:30:12;22.58;;;21.27;;
8476;SDS011;4275;42.854;23.222;2024-03-29T04:32:38;18.77;;;17.67;;
8476;SDS011;4275;42.854;23.222;2024-03-29T04:38:30;22.92;;;21.52;;
8476;SDS011;4275;42.854;23.222;2024-03-29T04:49:54;20.42;;;19.23;;
8476;SDS011;4275;42.854;23.222;2024-03-29T04:55:21;20.50;;;19.30;;
8476;SDS011;4275;42.854;23.222;2024-03-29T04:57:52;21.00;;;19.80;;
8476;SDS011;4275;42.854;23.222;2024-03-29T05:00:21;20.40;;;19.20;;
8476;SDS011;4275;42.854;23.222;2024-03-29T05:02:51;20.00;;;18.80;;
8476;SDS011;4275;42.854;23.222;2024-03-29T05:05:18;20.50;;;19.30;;
8476;SDS011;4275;42.854;23.222;2024-03-29T05:07:45;20.35;;;19.05;;
8476;SDS011;4275;42.854;23.222;2024-03-29T05:10:12;20.60;;;19.40;;
8476;SDS011;4275;42.854;23.222;2024-03-29T05:12:40;20.73;;;19.42;;
8476;SDS011;4275;42.854;23.222;2024-03-29T05:18:09;21.40;;;20.00;;
8476;SDS011;4275;42.854;23.222;2024-03-29T05:20:36;21.30;;;20.00;;
8476;SDS011;4275;42.854;23.222;2024-03-29T05:23:05;21.00;;;19.63;;
8476;SDS011;4275;42.854;23.222;2024-03-29T05:25:31;21.85;;;20.45;;
8476;SDS011;4275;42.854;23.222;2024-03-29T05:27:58;21.95;;;20.55;;
8476;SDS011;4275;42.854;23.222;2024-03-29T05:33:41;22.50;;;21.10;;
8476;SDS011;4275;42.854;23.222;2024-03-29T05:36:08;21.45;;;19.95;;
8476;SDS011;4275;42.854;23.222;2024-03-29T05:38:37;21.45;;;19.95;;
8476;SDS011;4275;42.854;23.222;2024-03-29T05:41:04;21.52;;;20.02;;
8476;SDS011;4275;42.854;23.222;2024-03-29T05:43:30;22.10;;;20.60;;
8476;SDS011;4275;42.854;23.222;2024-03-29T05:45:57;21.63;;;20.23;;
8476;SDS011;4275;42.854;23.222;2024-03-29T05:48:25;21.80;;;20.30;;
8476;SDS011;4275;42.854;23.222;2024-03-29T05:50:54;22.20;;;20.60;;
8476;SDS011;4275;42.854;23.222;2024-03-29T05:53:21;21.70;;;20.10;;
8476;SDS011;4275;42.854;23.222;2024-03-29T05:59:09;22.33;;;20.73;;
8476;SDS011;4275;42.854;23.222;2024-03-29T06:04:46;22.55;;;20.95;;
8476;SDS011;4275;42.854;23.222;2024-03-29T06:07:15;21.92;;;20.33;;
8476;SDS011;4275;42.854;23.222;2024-03-29T06:12:43;21.98;;;20.38;;
8476;SDS011;4275;42.854;23.222;2024-03-29T06:18:31;21.95;;;20.35;;
8476;SDS011;4275;42.854;23.222;2024-03-29T06:20:58;21.73;;;20.13;;
8476;SDS011;4275;42.854;23.222;2024-03-29T06:23:26;22.38;;;20.77;;
8476;SDS011;4275;42.854;23.222;2024-03-29T06:29:15;21.20;;;19.60;;
8476;SDS011;4275;42.854;23.222;2024-03-29T06:31:42;21.73;;;20.13;;
8476;SDS011;4275;42.854;23.222;2024-03-29T06:40:41;21.73;;;20.02;;
8476;SDS011;4275;42.854;23.222;2024-03-29T06:48:49;22.23;;;20.52;;
8476;SDS011;4275;42.854;23.222;2024-03-29T06:51:16;21.80;;;20.10;;
8476;SDS011;4275;42.854;23.222;2024-03-29T06:53:43;21.33;;;19.63;;
8476;SDS011;4275;42.854;23.222;2024-03-29T06:56:12;21.60;;;19.90;;
8476;SDS011;4275;42.854;23.222;2024-03-29T06:58:52;21.63;;;19.92;;
8476;SDS011;4275;42.854;23.222;2024-03-29T07:01:27;21.65;;;19.95;;
8476;SDS011;4275;42.854;23.222;2024-03-29T07:04:01;21.10;;;19.40;;
8476;SDS011;4275;42.854;23.222;2024-03-29T07:06:28;21.77;;;20.08;;
8476;SDS011;4275;42.854;23.222;2024-03-29T07:08:54;21.55;;;19.85;;
8476;SDS011;4275;42.854;23.222;2024-03-29T07:11:26;22.02;;;20.38;;
8476;SDS011;4275;42.854;23.222;2024-03-29T07:13:53;21.90;;;20.20;;
8476;SDS011;4275;42.854;23.222;2024-03-29T07:16:20;21.88;;;20.17;;
8476;SDS011;4275;42.854;23.222;2024-03-29T07:21:44;21.85;;;20.15;;
8476;SDS011;4275;42.854;23.222;2024-03-29T07:24:11;22.40;;;20.70;;
8476;SDS011;4275;42.854;23.222;2024-03-29T07:26:39;22.50;;;20.80;;
8476;SDS011;4275;42.854;23.222;2024-03-29T07:29:06;22.73;;;20.92;;
8476;SDS011;4275;42.854;23.222;2024-03-29T07:31:33;22.73;;;20.92;;
8476;SDS011;4275;42.854;23.222;2024-03-29T07:34:03;21.60;;;19.90;;
8476;SDS011;4275;42.854;23.222;2024-03-29T07:36:30;22.00;;;20.30;;
8476;SDS011;4275;42.854;23.222;2024-03-29T07:39:00;21.70;;;20.00;;
8476;SDS011;4275;42.854;23.222;2024-03-29T07:41:29;22.50;;;20.70;;
8476;SDS011;4275;42.854;23.222;2024-03-29T07:44:00;21.75;;;20.05;;
8476;SDS011;4275;42.854;23.222;2024-03-29T07:46:29;21.38;;;19.67;;
8476;SDS011;4275;42.854;23.222;2024-03-29T07:48:59;21.52;;;19.83;;
8476;SDS011;4275;42.854;23.222;2024-03-29T07:51:26;21.52;;;19.83;;
8476;SDS011;4275;42.854;23.222;2024-03-29T07:53:53;22.00;;;20.30;;
8476;SDS011;4275;42.854;23.222;2024-03-29T07:59:15;21.77;;;20.08;;
8476;SDS011;4275;42.854;23.222;2024-03-29T08:01:44;21.40;;;19.70;;
8476;SDS011;4275;42.854;23.222;2024-03-29T08:04:11;21.75;;;20.05;;
8476;SDS011;4275;42.854;23.222;2024-03-29T08:06:39;21.98;;;20.27;;
8476;SDS011;4275;42.854;23.222;2024-03-29T08:09:06;20.75;;;19.10;;
8476;SDS011;4275;42.854;23.222;2024-03-29T08:11:33;20.73;;;19.08;;
8476;SDS011;4275;42.854;23.222;2024-03-29T08:13:59;20.90;;;19.20;;
8476;SDS011;4275;42.854;23.222;2024-03-29T08:16:28;20.92;;;19.23;;
8476;SDS011;4275;42.854;23.222;2024-03-29T08:22:15;20.90;;;19.20;;
8476;SDS011;4275;42.854;23.222;2024-03-29T08:24:42;20.90;;;19.20;;
8476;SDS011;4275;42.854;23.222;2024-03-29T08:27:09;20.98;;;19.38;;
8476;SDS011;4275;42.854;23.222;2024-03-29T08:29:36;20.90;;;19.20;;
8476;SDS011;4275;42.854;23.222;2024-03-29T08:32:05;20.77;;;19.17;;
8476;SDS011;4275;42.854;23.222;2024-03-29T08:34:34;20.77;;;19.08;;
8476;SDS011;4275;42.854;23.222;2024-03-29T08:37:01;21.27;;;19.58;;
8476;SDS011;4275;42.854;23.222;2024-03-29T08:42:21;20.98;;;19.27;;
8476;SDS011;4275;42.854;23.222;2024-03-29T08:44:48;21.95;;;20.15;;
8476;SDS011;4275;42.854;23.222;2024-03-29T08:47:17;21.10;;;19.30;;
8476;SDS011;4275;42.854;23.222;2024-03-29T08:49:43;21.10;;;19.33;;
8476;SDS011;4275;42.854;23.222;2024-03-29T08:52:11;21.35;;;19.55;;
8476;SDS011;4275;42.854;23.222;2024-03-29T08:54:37;21.77;;;19.98;;
8476;SDS011;4275;42.854;23.222;2024-03-29T08:57:04;21.35;;;19.63;;
8476;SDS011;4275;42.854;23.222;2024-03-29T08:59:31;21.77;;;19.98;;
8476;SDS011;4275;42.854;23.222;2024-03-29T09:05:00;21.88;;;20.13;;
8476;SDS011;4275;42.854;23.222;2024-03-29T09:07:27;21.27;;;19.58;;
8476;SDS011;4275;42.854;23.222;2024-03-29T09:09:54;21.42;;;19.73;;
8476;SDS011;4275;42.854;23.222;2024-03-29T09:12:21;21.20;;;19.50;;
8476;SDS011;4275;42.854;23.222;2024-03-29T09:14:48;20.85;;;19.15;;
8476;SDS011;4275;42.854;23.222;2024-03-29T09:17:16;21.52;;;19.83;;
8476;SDS011;4275;42.854;23.222;2024-03-29T09:19:44;21.23;;;19.52;;
8476;SDS011;4275;42.854;23.222;2024-03-29T09:22:11;21.13;;;19.42;;
8476;SDS011;4275;42.854;23.222;2024-03-29T09:24:37;21.10;;;19.40;;
8476;SDS011;4275;42.854;23.222;2024-03-29T09:27:04;20.98;;;19.27;;
8476;SDS011;4275;42.854;23.222;2024-03-29T09:29:32;21.50;;;19.75;;
8476;SDS011;4275;42.854;23.222;2024-03-29T09:31:59;21.60;;;19.80;;
8476;SDS011;4275;42.854;23.222;2024-03-29T09:34:27;21.02;;;19.33;;
8476;SDS011;4275;42.854;23.222;2024-03-29T09:36:55;21.20;;;19.50;;
8476;SDS011;4275;42.854;23.222;2024-03-29T09:39:22;21.10;;;19.40;;
8476;SDS011;4275;42.854;23.222;2024-03-29T09:41:49;21.23;;;19.52;;
8476;SDS011;4275;42.854;23.222;2024-03-29T09:44:17;21.48;;;19.77;;
8476;SDS011;4275;42.854;23.222;2024-03-29T09:46:44;21.70;;;19.92;;
8476;SDS011;4275;42.854;23.222;2024-03-29T09:49:12;21.63;;;19.83;;
8476;SDS011;4275;42.854;23.222;2024-03-29T09:51:39;21.50;;;19.70;;
8476;SDS011;4275;42.854;23.222;2024-03-29T09:54:09;21.23;;;19.52;;
8476;SDS011;4275;42.854;23.222;2024-03-29T09:56:38;21.83;;;20.05;;
8476;SDS011;4275;42.854;23.222;2024-03-29T09:59:06;21.48;;;19.77;;
8476;SDS011;4275;42.854;23.222;2024-03-29T10:01:34;21.70;;;20.00;;
8476;SDS011;4275;42.854;23.222;2024-03-29T10:04:01;21.73;;;20.02;;
8476;SDS011;4275;42.854;23.222;2024-03-29T10:06:30;21.50;;;19.80;;
8476;SDS011;4275;42.854;23.222;2024-03-29T10:09:00;21.80;;;20.08;;
8476;SDS011;4275;42.854;23.222;2024-03-29T10:11:28;21.63;;;19.92;;
8476;SDS011;4275;42.854;23.222;2024-03-29T10:13:55;21.60;;;19.80;;
8476;SDS011;4275;42.854;23.222;2024-03-29T10:16:22;21.42;;;19.63;;
8476;SDS011;4275;42.854;23.222;2024-03-29T10:18:50;21.88;;;20.08;;
8476;SDS011;4275;42.854;23.222;2024-03-29T10:21:16;21.65;;;19.90;;
8476;SDS011;4275;42.854;23.222;2024-03-29T10:23:44;21.30;;;19.58;;
8476;SDS011;4275;42.854;23.222;2024-03-29T10:26:13;21.55;;;19.75;;
8476;SDS011;4275;42.854;23.222;2024-03-29T10:28:41;21.75;;;20.05;;
8476;SDS011;4275;42.854;23.222;2024-03-29T10:31:09;21.83;;;20.02;;
8476;SDS011;4275;42.854;23.222;2024-03-29T10:33:39;21.60;;;19.80;;
8476;SDS011;4275;42.854;23.222;2024-03-29T10:36:08;21.60;;;19.80;;
8476;SDS011;4275;42.854;23.222;2024-03-29T10:38:37;21.80;;;20.00;;
8476;SDS011;4275;42.854;23.222;2024-03-29T10:41:04;21.73;;;19.92;;
8476;SDS011;4275;42.854;23.222;2024-03-29T10:43:32;22.00;;;20.20;;
8476;SDS011;4275;42.854;23.222;2024-03-29T10:46:01;21.83;;;20.08;;
8476;SDS011;4275;42.854;23.222;2024-03-29T10:48:29;22.15;;;20.35;;
8476;SDS011;4275;42.854;23.222;2024-03-29T10:50:58;21.83;;;20.02;;
8476;SDS011;4275;42.854;23.222;2024-03-29T10:53:26;21.77;;;19.98;;
8476;SDS011;4275;42.854;23.222;2024-03-29T10:58:43;21.83;;;20.02;;
8476;SDS011;4275;42.854;23.222;2024-03-29T11:01:17;22.08;;;20.33;;
8476;SDS011;4275;42.854;23.222;2024-03-29T11:03:48;21.83;;;20.13;;
8476;SDS011;4275;42.854;23.222;2024-03-29T11:06:19;22.15;;;20.45;;
8476;SDS011;4275;42.854;23.222;2024-03-29T11:08:53;22.10;;;20.30;;
8476;SDS011;4275;42.854;23.222;2024-03-29T11:11:23;21.45;;;19.75;;
8476;SDS011;4275;42.854;23.222;2024-03-29T11:16:48;24.15;;;22.25;;
8476;SDS011;4275;42.854;23.222;2024-03-29T11:19:20;22.17;;;20.38;;
8476;SDS011;4275;42.854;23.222;2024-03-29T11:21:47;21.77;;;20.02;;
8476;SDS011;4275;42.854;23.222;2024-03-29T11:24:16;21.95;;;20.15;;
8476;SDS011;4275;42.854;23.222;2024-03-29T11:26:44;22.23;;;20.42;;
8476;SDS011;4275;42.854;23.222;2024-03-29T11:29:17;21.92;;;20.13;;
8476;SDS011;4275;42.854;23.222;2024-03-29T11:31:44;21.63;;;19.83;;
8476;SDS011;4275;42.854;23.222;2024-03-29T11:34:13;22.08;;;20.27;;
8476;SDS011;4275;42.854;23.222;2024-03-29T11:36:40;22.35;;;20.45;;
8476;SDS011;4275;42.854;23.222;2024-03-29T11:39:07;22.10;;;20.27;;
8476;SDS011;4275;42.854;23.222;2024-03-29T11:41:34;21.60;;;19.80;;
8476;SDS011;4275;42.854;23.222;2024-03-29T11:44:01;21.92;;;20.13;;
8476;SDS011;4275;42.854;23.222;2024-03-29T11:46:28;22.17;;;20.38;;
8476;SDS011;4275;42.854;23.222;2024-03-29T11:49:00;22.48;;;20.58;;
8476;SDS011;4275;42.854;23.222;2024-03-29T11:51:30;22.33;;;20.42;;
8476;SDS011;4275;42.854;23.222;2024-03-29T11:53:57;22.10;;;20.30;;
8476;SDS011;4275;42.854;23.222;2024-03-29T11:56:26;22.10;;;20.30;;
8476;SDS011;4275;42.854;23.222;2024-03-29T11:58:52;21.88;;;19.98;;
8476;SDS011;4275;42.854;23.222;2024-03-29T12:01:24;21.83;;;20.02;;
8476;SDS011;4275;42.854;23.222;2024-03-29T12:03:53;22.13;;;20.33;;
8476;SDS011;4275;42.854;23.222;2024-03-29T12:06:20;22.05;;;20.17;;
8476;SDS011;4275;42.854;23.222;2024-03-29T12:08:48;22.40;;;20.50;;
8476;SDS011;4275;42.854;23.222;2024-03-29T12:11:18;21.85;;;20.05;;
8476;SDS011;4275;42.854;23.222;2024-03-29T12:13:45;21.85;;;20.05;;
8476;SDS011;4275;42.854;23.222;2024-03-29T12:16:12;21.75;;;19.95;;
8476;SDS011;4275;42.854;23.222;2024-03-29T12:18:39;21.98;;;20.10;;
8476;SDS011;4275;42.854;23.222;2024-03-29T12:21:06;21.80;;;20.00;;
8476;SDS011;4275;42.854;23.222;2024-03-29T12:23:34;22.48;;;20.58;;
8476;SDS011;4275;42.854;23.222;2024-03-29T12:26:03;22.58;;;20.67;;
8476;SDS011;4275;42.854;23.222;2024-03-29T12:28:31;22.48;;;20.58;;
8476;SDS011;4275;42.854;23.222;2024-03-29T12:30:59;21.63;;;19.75;;
8476;SDS011;4275;42.854;23.222;2024-03-29T12:33:26;22.00;;;20.20;;
8476;SDS011;4275;42.854;23.222;2024-03-29T12:35:54;23.25;;;21.30;;
8476;SDS011;4275;42.854;23.222;2024-03-29T12:38:22;23.00;;;21.00;;
8476;SDS011;4275;42.854;23.222;2024-03-29T12:40:49;22.65;;;20.75;;
8476;SDS011;4275;42.854;23.222;2024-03-29T12:43:20;21.98;;;20.08;;
8476;SDS011;4275;42.854;23.222;2024-03-29T12:45:49;22.38;;;20.48;;
8476;SDS011;4275;42.854;23.222;2024-03-29T12:48:17;22.25;;;20.35;;
8476;SDS011;4275;42.854;23.222;2024-03-29T12:50:45;22.35;;;20.45;;
8476;SDS011;4275;42.854;23.222;2024-03-29T12:53:13;22.35;;;20.45;;
8476;SDS011;4275;42.854;23.222;2024-03-29T12:55:41;21.63;;;19.83;;
8476;SDS011;4275;42.854;23.222;2024-03-29T12:58:11;21.73;;;19.92;;
8476;SDS011;4275;42.854;23.222;2024-03-29T13:00:39;22.85;;;20.95;;
8476;SDS011;4275;42.854;23.222;2024-03-29T13:03:07;22.75;;;20.85;;
8476;SDS011;4275;42.854;23.222;2024-03-29T13:05:34;23.10;;;21.20;;
8476;SDS011;4275;42.854;23.222;2024-03-29T13:08:05;22.25;;;20.35;;
8476;SDS011;4275;42.854;23.222;2024-03-29T13:10:34;22.23;;;20.33;;
8476;SDS011;4275;42.854;23.222;2024-03-29T13:13:01;22.70;;;20.70;;
8476;SDS011;4275;42.854;23.222;2024-03-29T13:15:28;23.27;;;21.27;;
8476;SDS011;4275;42.854;23.222;2024-03-29T13:18:00;23.20;;;21.20;;
8476;SDS011;4275;42.854;23.222;2024-03-29T13:20:27;23.25;;;21.25;;
8476;SDS011;4275;42.854;23.222;2024-03-29T13:22:54;23.33;;;21.33;;
8476;SDS011;4275;42.854;23.222;2024-03-29T13:25:22;22.30;;;20.35;;
8476;SDS011;4275;42.854;23.222;2024-03-29T13:30:39;22.95;;;20.95;;
8476;SDS011;4275;42.854;23.222;2024-03-29T13:33:12;22.25;;;20.33;;
8476;SDS011;4275;42.854;23.222;2024-03-29T13:35:41;22.02;;;20.13;;
8476;SDS011;4275;42.854;23.222;2024-03-29T13:38:09;22.17;;;20.27;;
8476;SDS011;4275;42.854;23.222;2024-03-29T13:40:36;22.80;;;20.80;;
8476;SDS011;4275;42.854;23.222;2024-03-29T13:43:05;23.10;;;21.10;;
8476;SDS011;4275;42.854;23.222;2024-03-29T13:45:32;21.95;;;20.05;;
8476;SDS011;4275;42.854;23.222;2024-03-29T13:47:59;21.92;;;20.05;;
8476;SDS011;4275;42.854;23.222;2024-03-29T13:50:28;23.17;;;21.10;;
8476;SDS011;4275;42.854;23.222;2024-03-29T13:52:55;23.00;;;20.90;;
8476;SDS011;4275;42.854;23.222;2024-03-29T13:55:22;22.92;;;20.92;;
8476;SDS011;4275;42.854;23.222;2024-03-29T13:57:51;23.30;;;21.20;;
8476;SDS011;4275;42.854;23.222;2024-03-29T14:00:18;22.35;;;20.35;;
8476;SDS011;4275;42.854;23.222;2024-03-29T14:02:45;22.15;;;20.15;;
8476;SDS011;4275;42.854;23.222;2024-03-29T14:05:12;22.63;;;20.63;;
8476;SDS011;4275;42.854;23.222;2024-03-29T14:07:40;22.38;;;20.38;;
8476;SDS011;4275;42.854;23.222;2024-03-29T14:10:08;22.67;;;20.65;;
8476;SDS011;4275;42.854;23.222;2024-03-29T14:12:35;23.08;;;20.98;;
8476;SDS011;4275;42.854;23.222;2024-03-29T14:15:02;22.92;;;20.83;;
8476;SDS011;4275;42.854;23.222;2024-03-29T14:17:31;22.73;;;20.63;;
8476;SDS011;4275;42.854;23.222;2024-03-29T14:19:58;22.25;;;20.25;;
8476;SDS011;4275;42.854;23.222;2024-03-29T14:22:25;22.80;;;20.70;;
8476;SDS011;4275;42.854;23.222;2024-03-29T14:24:56;23.23;;;21.13;;
8476;SDS011;4275;42.854;23.222;2024-03-29T14:27:23;23.30;;;21.20;;
8476;SDS011;4275;42.854;23.222;2024-03-29T14:29:50;22.25;;;20.35;;
8476;SDS011;4275;42.854;23.222;2024-03-29T14:32:17;22.58;;;20.58;;
8476;SDS011;4275;42.854;23.222;2024-03-29T14:34:47;22.38;;;20.45;;
8476;SDS011;4275;42.854;23.222;2024-03-29T14:37:14;22.77;;;20.88;;
8476;SDS011;4275;42.854;23.222;2024-03-29T14:39:41;22.75;;;20.77;;
8476;SDS011;4275;42.854;23.222;2024-03-29T14:42:10;22.52;;;20.63;;
8476;SDS011;4275;42.854;23.222;2024-03-29T14:44:44;22.85;;;20.90;;
8476;SDS011;4275;42.854;23.222;2024-03-29T14:47:11;23.65;;;21.65;;
8476;SDS011;4275;42.854;23.222;2024-03-29T14:49:39;23.15;;;21.15;;
8476;SDS011;4275;42.854;23.222;2024-03-29T14:52:07;22.95;;;21.02;;
8476;SDS011;4275;42.854;23.222;2024-03-29T14:54:34;23.27;;;21.27;;
8476;SDS011;4275;42.854;23.222;2024-03-29T14:57:01;22.42;;;20.52;;
8476;SDS011;4275;42.854;23.222;2024-03-29T14:59:29;23.05;;;21.15;;
8476;SDS011;4275;42.854;23.222;2024-03-29T15:01:58;23.17;;;21.27;;
8476;SDS011;4275;42.854;23.222;2024-03-29T15:04:24;23.92;;;21.92;;
8476;SDS011;4275;42.854;23.222;2024-03-29T15:06:51;23.85;;;21.75;;
8476;SDS011;4275;42.854;23.222;2024-03-29T15:09:18;23.85;;;21.75;;
8476;SDS011;4275;42.854;23.222;2024-03-29T15:11:45;24.00;;;21.90;;
8476;SDS011;4275;42.854;23.222;2024-03-29T15:20:58;23.20;;;21.17;;
8476;SDS011;4275;42.854;23.222;2024-03-29T15:23:27;24.27;;;22.17;;
8476;SDS011;4275;42.854;23.222;2024-03-29T15:25:55;23.63;;;21.52;;
8476;SDS011;4275;42.854;23.222;2024-03-29T15:28:23;24.25;;;22.05;;
8476;SDS011;4275;42.854;23.222;2024-03-29T15:31:09;24.27;;;22.13;;
8476;SDS011;4275;42.854;23.222;2024-03-29T15:33:37;24.17;;;22.08;;
8476;SDS011;4275;42.854;23.222;2024-03-29T15:36:06;23.70;;;21.60;;
8476;SDS011;4275;42.854;23.222;2024-03-29T15:38:34;23.70;;;21.60;;
8476;SDS011;4275;42.854;23.222;2024-03-29T15:41:01;24.63;;;22.42;;
8476;SDS011;4275;42.854;23.222;2024-03-29T15:43:29;23.73;;;21.63;;
8476;SDS011;4275;42.854;23.222;2024-03-29T15:45:57;24.20;;;22.00;;
8476;SDS011;4275;42.854;23.222;2024-03-29T15:48:24;23.35;;;21.35;;
8476;SDS011;4275;42.854;23.222;2024-03-29T15:50:51;24.20;;;22.10;;
8476;SDS011;4275;42.854;23.222;2024-03-29T15:53:20;23.45;;;21.35;;
8476;SDS011;4275;42.854;23.222;2024-03-29T15:55:47;22.95;;;20.85;;
8476;SDS011;4275;42.854;23.222;2024-03-29T15:58:14;23.23;;;21.13;;
8476;SDS011;4275;42.854;23.222;2024-03-29T16:00:41;23.27;;;21.17;;
8476;SDS011;4275;42.854;23.222;2024-03-29T16:03:09;23.80;;;21.70;;
8476;SDS011;4275;42.854;23.222;2024-03-29T16:05:35;23.30;;;21.20;;